sensor_id;sensor_type;location;lat;lon;timestamp;pressure;altitude;pressure_sealevel;temperature;humidity
69593;BME280;56796;50.122;14.468;2023-03-23T00:09:09;973.54;;;11.79;68.61
69593;BME280;56796;50.122;14.468;2023-03-23T00:28:34;973.51;;;11.59;69.46
69593;BME280;56796;50.122;14.468;2023-03-23T00:48:01;973.4;;;11.52;69.42
69593;BME280;56796;50.122;14.468;2023-03-23T01:07:26;973.1;;;11.41;69.79
69593;BME280;56796;50.122;14.468;2023-03-23T01:26:52;972.93;;;11.26;70.32
69593;BME280;56796;50.122;14.468;2023-03-23T01:46:18;972.84;;;11.04;71.09
69593;BME280;56796;50.122;14.468;2023-03-23T02:05:46;972.66;;;10.74;72.68
69593;BME280;56796;50.122;14.468;2023-03-23T02:25:09;972.62;;;10.75;73.09
69593;BME280;56796;50.122;14.468;2023-03-23T02:44:31;972.55;;;10.91;72.85
69593;BME280;56796;50.122;14.468;2023-03-23T03:03:59;972.51;;;10.95;72.9
69593;BME280;56796;50.122;14.468;2023-03-23T03:23:24;972.53;;;11.05;72.47
69593;BME280;56796;50.122;14.468;2023-03-23T03:42:54;972.46;;;10.96;72.91
69593;BME280;56796;50.122;14.468;2023-03-23T04:02:12;972.54;;;10.9;73.11
69593;BME280;56796;50.122;14.468;2023-03-23T04:21:38;972.47;;;10.99;72.91
69593;BME280;56796;50.122;14.468;2023-03-23T04:41:04;972.58;;;11.1;72.39
69593;BME280;56796;50.122;14.468;2023-03-23T05:00:29;972.51;;;11.04;72.58
69593;BME280;56796;50.122;14.468;2023-03-23T05:19:56;972.67;;;10.78;73.46
69593;BME280;56796;50.122;14.468;2023-03-23T05:39:23;972.59;;;11.01;72.57
69593;BME280;56796;50.122;14.468;2023-03-23T05:58:50;972.66;;;11.31;71.34
69593;BME280;56796;50.122;14.468;2023-03-23T06:18:18;972.45;;;11.73;69.64
69593;BME280;56796;50.122;14.468;2023-03-23T06:37:46;972.51;;;12.24;67.77
69593;BME280;56796;50.122;14.468;2023-03-23T06:57:14;972.61;;;12.58;66.56
69593;BME280;56796;50.122;14.468;2023-03-23T07:16:42;972.63;;;12.97;65.05
69593;BME280;56796;50.122;14.468;2023-03-23T07:36:10;972.74;;;13.57;63.83
69593;BME280;56796;50.122;14.468;2023-03-23T07:55:44;972.61;;;15.59;59.09
69593;BME280;56796;50.122;14.468;2023-03-23T08:15:06;972.65;;;15.46;58.29
69593;BME280;56796;50.122;14.468;2023-03-23T08:34:32;972.65;;;15.96;57.15
69593;BME280;56796;50.122;14.468;2023-03-23T08:54:00;972.57;;;16.68;54.79
69593;BME280;56796;50.122;14.468;2023-03-23T09:13:31;972.23;;;18.08;51.41
69593;BME280;56796;50.122;14.468;2023-03-23T09:33:01;972.3;;;18.43;50.42
69593;BME280;56796;50.122;14.468;2023-03-23T09:52:33;972.58;;;18.73;49.73
69593;BME280;56796;50.122;14.468;2023-03-23T10:11:57;972.61;;;18.12;48.53
69593;BME280;56796;50.122;14.468;2023-03-23T10:31:21;972.57;;;18.09;47.38
69593;BME280;56796;50.122;14.468;2023-03-23T10:50:54;972.62;;;18.08;48.52
69593;BME280;56796;50.122;14.468;2023-03-23T11:10:17;972.65;;;17.79;49.92
69593;BME280;56796;50.122;14.468;2023-03-23T11:29:47;972.65;;;18.24;49.8
69593;BME280;56796;50.122;14.468;2023-03-23T11:49:10;972.48;;;18.25;49.69
69593;BME280;56796;50.122;14.468;2023-03-23T12:08:42;972.38;;;18.67;49.57
69593;BME280;56796;50.122;14.468;2023-03-23T12:28:06;972.47;;;18.42;49.26
69593;BME280;56796;50.122;14.468;2023-03-23T12:47:32;972.45;;;18.18;50.68
69593;BME280;56796;50.122;14.468;2023-03-23T13:06:55;972.35;;;17.81;51.83
69593;BME280;56796;50.122;14.468;2023-03-23T13:26:21;972.37;;;17.62;53.14
69593;BME280;56796;50.122;14.468;2023-03-23T13:45:47;972.4;;;17.6;53.71
69593;BME280;56796;50.122;14.468;2023-03-23T14:24:40;972.3;;;17.51;55.01
69593;BME280;56796;50.122;14.468;2023-03-23T14:44:12;972.3;;;17.54;55.91
69593;BME280;56796;50.122;14.468;2023-03-23T15:03:31;972.45;;;17.61;56.11
69593;BME280;56796;50.122;14.468;2023-03-23T15:22:56;972.14;;;17.43;56.59
69593;BME280;56796;50.122;14.468;2023-03-23T15:42:23;972.31;;;17.51;57.34
69593;BME280;56796;50.122;14.468;2023-03-23T16:01:49;972.63;;;17.12;59.18
69593;BME280;56796;50.122;14.468;2023-03-23T16:21:15;972.94;;;16.67;60.37
69593;BME280;56796;50.122;14.468;2023-03-23T16:40:44;972.92;;;16.42;61.55
69593;BME280;56796;50.122;14.468;2023-03-23T17:00:03;973.24;;;16.16;62.32
69593;BME280;56796;50.122;14.468;2023-03-23T17:19:30;973.16;;;15.93;63.1
69593;BME280;56796;50.122;14.468;2023-03-23T17:38:49;973.37;;;15.94;63.1
69593;BME280;56796;50.122;14.468;2023-03-23T17:58:16;973.45;;;15.83;63.42
69593;BME280;56796;50.122;14.468;2023-03-23T18:17:42;973.58;;;15.72;63.8
69593;BME280;56796;50.122;14.468;2023-03-23T18:37:08;973.74;;;15.63;64.32
69593;BME280;56796;50.122;14.468;2023-03-23T18:56:35;973.72;;;15.51;64.4
69593;BME280;56796;50.122;14.468;2023-03-23T19:16:01;973.71;;;15.36;64.77
69593;BME280;56796;50.122;14.468;2023-03-23T19:35:26;973.72;;;15.28;65.03
69593;BME280;56796;50.122;14.468;2023-03-23T19:54:56;973.64;;;15.19;65.37
69593;BME280;56796;50.122;14.468;2023-03-23T20:14:15;973.69;;;15.13;65.71
69593;BME280;56796;50.122;14.468;2023-03-23T20:33:42;973.62;;;15.05;66.33
69593;BME280;56796;50.122;14.468;2023-03-23T20:53:08;973.47;;;15.03;66.47
69593;BME280;56796;50.122;14.468;2023-03-23T21:12:35;973.25;;;14.92;66.82
69593;BME280;56796;50.122;14.468;2023-03-23T21:32:01;973.24;;;14.79;67.39
69593;BME280;56796;50.122;14.468;2023-03-23T21:51:28;973.08;;;14.64;67.97
69593;BME280;56796;50.122;14.468;2023-03-23T22:10:57;973.06;;;14.38;69.31
69593;BME280;56796;50.122;14.468;2023-03-23T22:30:19;972.93;;;14.22;70
69593;BME280;56796;50.122;14.468;2023-03-23T22:49:45;972.8;;;14.14;70.38
69593;BME280;56796;50.122;14.468;2023-03-23T23:09:12;972.68;;;14.06;70.82
69593;BME280;56796;50.122;14.468;2023-03-23T23:28:38;972.51;;;13.85;71.62
69593;BME280;56796;50.122;14.468;2023-03-23T23:48:04;972.36;;;13.79;71.89
